Time;durP1;ratioP1;P1;durP2;ratioP2;P2;SDS_P1;SDS_P2;PMS_P1;PMS_P2;Temp;Humidity;BMP_temperature;BMP_pressure;BME280_temperature;BME280_humidity;BME280_pressure;Samples;Min_cycle;Max_cycle;Signal;HPM_P1;HPM_P2
2021/10/29 00:00:58;;;;;;;4.80;4.40;;;14.00;71.60;;;;;;4970854;28;20050;-85
2021/10/29 00:03:24;;;;;;;4.95;4.75;;;14.00;71.70;;;;;;4977028;28;20030;-84
2021/10/29 00:05:50;;;;;;;5.47;5.18;;;14.00;71.80;;;;;;4955763;28;20038;-85
2021/10/29 00:08:16;;;;;;;4.90;4.65;;;14.00;71.90;;;;;;4967712;28;20027;-85
2021/10/29 00:10:43;;;;;;;4.75;4.55;;;13.90;72.00;;;;;;4972119;28;20050;-85
2021/10/29 00:13:09;;;;;;;4.50;4.30;;;13.90;72.00;;;;;;4972241;28;20027;-85
2021/10/29 00:15:35;;;;;;;6.03;4.47;;;13.90;72.10;;;;;;4957698;28;20039;-85
2021/10/29 00:18:01;;;;;;;4.13;3.92;;;13.90;72.10;;;;;;4971652;28;20038;-85
2021/10/29 00:20:27;;;;;;;4.30;4.10;;;13.80;72.00;;;;;;4972010;28;20502;-85
2021/10/29 00:22:54;;;;;;;4.53;4.10;;;13.80;72.10;;;;;;4970165;28;20031;-85
2021/10/29 00:25:20;;;;;;;4.43;4.22;;;13.80;72.20;;;;;;4973880;28;20039;-84
2021/10/29 00:27:47;;;;;;;4.25;4.05;;;13.80;72.10;;;;;;4971187;28;20095;-85
2021/10/29 00:30:13;;;;;;;5.00;4.60;;;13.80;72.10;;;;;;4970129;28;20419;-85
2021/10/29 00:32:39;;;;;;;4.00;3.80;;;13.80;72.10;;;;;;4971223;28;20042;-85
2021/10/29 00:35:06;;;;;;;4.50;4.30;;;13.80;72.10;;;;;;4985448;28;20511;-85
2021/10/29 00:37:37;;;;;;;4.68;3.97;;;13.80;72.10;;;;;;4971379;28;20494;-85
2021/10/29 00:40:05;;;;;;;3.80;3.60;;;13.80;72.10;;;;;;4971383;28;20031;-85
2021/10/29 00:42:31;;;;;;;4.15;3.95;;;13.80;72.10;;;;;;4968873;28;20038;-84
2021/10/29 00:44:57;;;;;;;4.00;3.80;;;13.80;72.20;;;;;;4972492;28;20031;-85
2021/10/29 00:47:23;;;;;;;3.90;3.70;;;13.90;72.20;;;;;;4974102;28;20039;-84
2021/10/29 00:49:50;;;;;;;4.28;4.07;;;13.90;72.20;;;;;;4968225;28;20051;-85
2021/10/29 00:52:16;;;;;;;4.20;4.00;;;13.90;72.20;;;;;;4969444;28;20047;-85
2021/10/29 00:54:42;;;;;;;4.10;3.90;;;13.90;72.10;;;;;;4971171;28;20031;-84
2021/10/29 00:57:08;;;;;;;4.28;3.97;;;13.90;72.10;;;;;;4969594;28;20030;-85
2021/10/29 00:59:34;;;;;;;4.20;4.00;;;13.90;72.10;;;;;;4972052;28;20035;-85
2021/10/29 01:02:01;;;;;;;3.90;3.70;;;14.00;72.10;;;;;;4972223;28;20046;-84
2021/10/29 01:04:27;;;;;;;4.28;4.07;;;14.00;72.10;;;;;;4978021;28;20042;-85
2021/10/29 01:06:53;;;;;;;4.38;4.18;;;14.00;72.00;;;;;;4968719;28;20395;-85
2021/10/29 01:09:19;;;;;;;3.78;3.58;;;14.00;72.00;;;;;;4970471;28;20053;-85
2021/10/29 01:11:45;;;;;;;3.92;3.72;;;14.10;72.00;;;;;;4971329;28;20407;-85
2021/10/29 01:14:12;;;;;;;4.95;4.35;;;14.10;72.00;;;;;;4972735;28;20030;-85
2021/10/29 01:16:38;;;;;;;4.15;3.95;;;14.10;72.00;;;;;;4971244;28;20407;-84
2021/10/29 01:19:04;;;;;;;3.92;3.72;;;14.10;72.00;;;;;;4981396;28;20107;-85
2021/10/29 01:21:31;;;;;;;4.57;4.28;;;14.10;72.00;;;;;;4975437;28;20034;-85
2021/10/29 01:23:57;;;;;;;4.28;4.07;;;14.10;72.00;;;;;;4969830;28;20034;-84
2021/10/29 01:26:23;;;;;;;4.15;3.95;;;14.10;72.00;;;;;;4956541;28;20403;-85
2021/10/29 01:28:49;;;;;;;5.97;4.47;;;14.10;72.00;;;;;;4969091;28;20041;-84
2021/10/29 01:31:16;;;;;;;4.47;4.05;;;14.10;72.00;;;;;;4969124;28;20062;-85
2021/10/29 01:33:42;;;;;;;4.53;4.22;;;14.10;72.00;;;;;;4955070;28;20051;-85
2021/10/29 01:36:08;;;;;;;4.88;4.57;;;14.10;72.00;;;;;;4967961;28;20380;-84
2021/10/29 01:38:36;;;;;;;4.22;4.03;;;14.10;72.00;;;;;;4954325;28;20047;-85
2021/10/29 01:41:03;;;;;;;4.07;3.88;;;14.20;72.20;;;;;;4972794;28;20049;-85
2021/10/29 01:43:29;;;;;;;3.63;3.47;;;14.10;72.10;;;;;;4970810;28;20042;-85
2021/10/29 01:45:55;;;;;;;4.05;3.85;;;14.10;72.10;;;;;;4969039;28;20035;-85
2021/10/29 01:48:24;;;;;;;4.13;3.92;;;14.10;72.10;;;;;;4972538;28;20042;-85
2021/10/29 01:50:51;;;;;;;3.85;3.65;;;14.10;72.10;;;;;;4969605;28;20043;-85
2021/10/29 01:53:17;;;;;;;3.92;3.72;;;14.10;72.00;;;;;;4972193;28;20383;-85
2021/10/29 01:55:43;;;;;;;4.15;3.95;;;14.10;72.20;;;;;;4968003;28;20034;-85
2021/10/29 01:58:09;;;;;;;4.00;3.80;;;14.10;72.10;;;;;;4970748;28;20023;-84
2021/10/29 02:00:35;;;;;;;3.83;3.63;;;14.20;72.20;;;;;;4968727;28;20051;-85
2021/10/29 02:03:01;;;;;;;4.32;4.13;;;14.20;72.10;;;;;;4964401;28;20031;-85
2021/10/29 02:05:27;;;;;;;5.05;4.65;;;14.20;72.10;;;;;;4963530;28;20467;-85
2021/10/29 02:07:53;;;;;;;4.00;3.80;;;14.20;72.10;;;;;;4969821;28;20057;-85
2021/10/29 02:10:19;;;;;;;5.32;4.90;;;14.20;72.10;;;;;;4949309;28;20062;-85
2021/10/29 02:12:46;;;;;;;5.28;4.88;;;14.20;72.10;;;;;;4959756;28;20037;-85
2021/10/29 02:15:12;;;;;;;4.60;4.35;;;14.20;72.10;;;;;;4968617;28;20038;-84
2021/10/29 02:17:38;;;;;;;4.18;3.92;;;14.20;72.10;;;;;;4970282;28;20027;-84
2021/10/29 02:20:05;;;;;;;4.15;3.92;;;14.20;72.10;;;;;;4966442;28;20035;-84
2021/10/29 02:22:31;;;;;;;3.92;3.72;;;14.20;72.10;;;;;;4972117;28;20408;-85
2021/10/29 02:24:57;;;;;;;4.53;4.32;;;14.20;72.10;;;;;;4973933;28;20023;-85
2021/10/29 02:27:23;;;;;;;4.25;4.05;;;14.20;72.10;;;;;;4985997;28;20061;-84
2021/10/29 02:29:50;;;;;;;4.32;4.03;;;14.20;72.90;;;;;;4974487;28;20492;-84
2021/10/29 02:32:16;;;;;;;4.35;4.15;;;14.20;72.10;;;;;;4971812;28;20046;-84
2021/10/29 02:34:42;;;;;;;4.78;4.47;;;14.20;72.10;;;;;;4971166;28;20059;-84
2021/10/29 02:37:08;;;;;;;4.10;3.90;;;14.30;72.10;;;;;;4970818;28;20035;-85
2021/10/29 02:39:34;;;;;;;4.25;4.05;;;14.20;72.10;;;;;;4974736;28;20031;-85
2021/10/29 02:42:04;;;;;;;3.90;3.70;;;14.20;72.10;;;;;;4973174;28;20027;-85
2021/10/29 02:44:30;;;;;;;4.07;3.88;;;14.20;72.10;;;;;;4975694;28;20484;-84
2021/10/29 02:46:56;;;;;;;4.22;4.03;;;14.20;72.10;;;;;;4956293;28;20046;-85
2021/10/29 02:49:22;;;;;;;4.15;3.95;;;14.20;72.10;;;;;;4953909;28;20047;-85
2021/10/29 02:51:48;;;;;;;4.18;3.97;;;14.20;72.10;;;;;;4970247;28;20059;-85
2021/10/29 02:54:14;;;;;;;3.90;3.70;;;14.20;72.10;;;;;;4974199;28;20030;-85
2021/10/29 02:56:40;;;;;;;4.30;4.10;;;14.30;72.20;;;;;;4972156;28;20050;-85
2021/10/29 02:59:07;;;;;;;4.25;4.05;;;14.30;72.10;;;;;;4974727;28;20060;-85
2021/10/29 03:01:33;;;;;;;4.35;4.15;;;14.30;72.10;;;;;;4972006;28;20042;-85
2021/10/29 03:03:59;;;;;;;5.20;4.20;;;14.30;72.10;;;;;;4971895;28;20399;-84
2021/10/29 03:06:25;;;;;;;4.07;3.88;;;14.30;72.10;;;;;;4974301;28;20034;-85
2021/10/29 03:08:51;;;;;;;4.50;4.30;;;14.30;72.10;;;;;;4972602;28;20034;-85
2021/10/29 03:11:17;;;;;;;4.43;4.03;;;14.30;72.00;;;;;;4978803;28;20047;-85
2021/10/29 03:13:43;;;;;;;10.35;4.38;;;14.40;72.10;;;;;;4973371;28;20027;-84
2021/10/29 03:16:09;;;;;;;4.25;4.05;;;14.40;72.00;;;;;;4955889;28;20042;-85
2021/10/29 03:18:35;;;;;;;4.13;3.90;;;14.40;72.00;;;;;;4972081;28;20035;-85
2021/10/29 03:21:02;;;;;;;4.13;3.92;;;14.40;72.00;;;;;;4972956;28;20057;-85
2021/10/29 03:23:28;;;;;;;4.10;3.90;;;14.40;71.90;;;;;;4972756;28;20039;-84
2021/10/29 03:25:54;;;;;;;4.45;4.20;;;14.50;72.00;;;;;;4966218;28;20034;-85
2021/10/29 03:28:20;;;;;;;4.22;4.03;;;14.50;72.00;;;;;;4982072;28;20077;-85
2021/10/29 03:30:46;;;;;;;4.00;3.80;;;14.50;71.90;;;;;;4976900;28;20403;-85
2021/10/29 03:33:13;;;;;;;4.10;3.90;;;14.60;71.90;;;;;;4972305;28;20037;-85
2021/10/29 03:35:39;;;;;;;4.57;4.38;;;14.60;71.90;;;;;;4973070;28;20046;-86
2021/10/29 03:43:29;;;;;;;4.30;4.10;;;14.60;71.60;;;;;;4971965;28;20062;-85
2021/10/29 03:46:05;;;;;;;4.20;4.00;;;14.70;71.70;;;;;;4970983;28;20620;-85
2021/10/29 03:54:12;;;;;;;4.47;4.20;;;14.80;71.50;;;;;;4975924;28;20038;-84
2021/10/29 03:56:42;;;;;;;4.20;4.00;;;14.80;71.40;;;;;;4972918;28;20046;-86
2021/10/29 03:59:10;;;;;;;4.55;4.35;;;14.90;71.40;;;;;;4973661;28;20054;-86
2021/10/29 04:01:37;;;;;;;4.20;4.00;;;14.90;71.30;;;;;;4969633;28;20038;-87
2021/10/29 04:04:03;;;;;;;4.55;4.35;;;14.90;71.30;;;;;;4972662;28;20037;-86
2021/10/29 04:06:29;;;;;;;4.35;4.15;;;15.00;71.30;;;;;;4973067;28;20034;-86
2021/10/29 04:08:55;;;;;;;4.50;4.30;;;15.00;71.30;;;;;;4970449;28;20537;-86
2021/10/29 04:11:24;;;;;;;4.82;4.63;;;15.00;71.20;;;;;;4973321;28;20047;-86
2021/10/29 04:13:50;;;;;;;5.00;4.80;;;15.00;71.20;;;;;;4971091;28;20042;-86
2021/10/29 04:16:17;;;;;;;4.80;4.60;;;15.10;71.30;;;;;;4969782;28;20053;-86
2021/10/29 04:18:43;;;;;;;5.05;4.75;;;15.10;71.20;;;;;;4972150;28;20471;-86
2021/10/29 04:21:09;;;;;;;4.72;4.53;;;15.10;71.10;;;;;;4972460;28;20035;-86
2021/10/29 04:23:35;;;;;;;4.82;4.63;;;15.10;71.10;;;;;;4972233;28;20046;-86
2021/10/29 04:26:02;;;;;;;4.90;4.65;;;15.10;71.10;;;;;;4970622;28;20034;-86
2021/10/29 04:28:28;;;;;;;5.20;5.00;;;15.10;71.10;;;;;;4969978;28;20042;-86
2021/10/29 04:30:55;;;;;;;5.45;5.05;;;15.20;71.10;;;;;;4969261;28;20058;-86
2021/10/29 04:33:21;;;;;;;5.80;5.35;;;15.20;71.10;;;;;;4970975;28;20038;-86
2021/10/29 04:35:50;;;;;;;5.55;5.25;;;15.20;71.10;;;;;;4970310;28;20384;-87
2021/10/29 04:38:17;;;;;;;4.80;4.60;;;15.20;71.00;;;;;;4955218;28;20069;-86
2021/10/29 04:40:43;;;;;;;4.97;4.78;;;15.30;71.00;;;;;;4973718;28;20037;-86
2021/10/29 04:43:10;;;;;;;4.97;4.72;;;15.30;71.00;;;;;;4970327;28;20031;-86
2021/10/29 04:45:36;;;;;;;5.10;4.80;;;15.30;71.00;;;;;;4970846;28;20046;-86
2021/10/29 04:48:03;;;;;;;5.10;4.90;;;15.30;70.90;;;;;;4969957;28;20471;-86
2021/10/29 04:50:29;;;;;;;4.93;4.72;;;15.30;70.90;;;;;;4972270;28;20035;-86
2021/10/29 04:52:56;;;;;;;5.43;5.05;;;15.30;70.90;;;;;;4969417;28;20476;-86
2021/10/29 04:55:22;;;;;;;5.00;4.80;;;15.40;70.90;;;;;;4951694;28;20062;-86
2021/10/29 04:57:48;;;;;;;5.03;4.72;;;15.40;70.90;;;;;;4963138;28;20026;-86
2021/10/29 05:00:14;;;;;;;5.15;4.93;;;15.40;70.90;;;;;;4970552;28;20031;-86
2021/10/29 05:02:40;;;;;;;4.43;4.22;;;15.40;70.90;;;;;;4963431;28;20495;-86
2021/10/29 05:05:07;;;;;;;4.93;4.70;;;15.40;71.60;;;;;;4971347;28;20042;-86
2021/10/29 05:07:34;;;;;;;5.43;5.13;;;15.40;70.90;;;;;;4971980;28;20379;-86
2021/10/29 05:10:00;;;;;;;5.82;5.43;;;15.40;70.90;;;;;;4970440;28;20035;-86
2021/10/29 05:12:26;;;;;;;5.20;4.90;;;15.40;70.90;;;;;;4967491;28;20054;-85
2021/10/29 05:14:55;;;;;;;4.80;4.60;;;15.40;70.90;;;;;;4974272;28;20023;-86
2021/10/29 05:17:21;;;;;;;4.75;4.55;;;15.40;70.90;;;;;;4972366;28;20045;-86
2021/10/29 05:19:47;;;;;;;4.80;4.60;;;15.50;70.90;;;;;;4969687;28;20039;-86
2021/10/29 05:22:14;;;;;;;5.15;4.85;;;15.40;70.80;;;;;;4975455;28;20034;-86
2021/10/29 05:24:40;;;;;;;4.80;4.60;;;15.40;70.90;;;;;;4967551;28;20046;-86
2021/10/29 05:27:06;;;;;;;5.00;4.80;;;15.40;70.80;;;;;;4953929;28;20046;-86
2021/10/29 05:29:32;;;;;;;4.70;4.50;;;15.40;70.90;;;;;;4971655;28;20042;-87
2021/10/29 05:32:01;;;;;;;5.03;4.72;;;15.40;70.90;;;;;;4968134;28;20050;-84
2021/10/29 05:34:28;;;;;;;4.18;3.97;;;15.50;70.90;;;;;;4953043;28;20399;-85
2021/10/29 05:36:55;;;;;;;4.40;4.20;;;15.50;70.90;;;;;;4970724;28;20054;-84
2021/10/29 05:39:22;;;;;;;4.63;4.43;;;15.50;70.90;;;;;;4971910;28;20026;-88
2021/10/29 05:41:48;;;;;;;4.97;4.68;;;15.50;70.90;;;;;;4968081;28;20050;-86
2021/10/29 05:44:18;;;;;;;4.90;4.65;;;15.60;70.90;;;;;;4972066;28;20061;-88
2021/10/29 05:46:45;;;;;;;4.95;4.75;;;15.50;70.90;;;;;;4969250;28;20043;-87
2021/10/29 05:49:13;;;;;;;4.50;4.30;;;15.60;70.90;;;;;;4969612;28;20058;-85
2021/10/29 05:51:44;;;;;;;4.93;4.72;;;15.60;70.90;;;;;;4968650;28;20034;-87
2021/10/29 05:54:24;;;;;;;4.85;4.65;;;15.60;71.70;;;;;;4963849;28;20415;-89
2021/10/29 05:56:50;;;;;;;4.50;4.30;;;15.60;70.90;;;;;;4973083;28;20688;-94
2021/10/29 05:59:16;;;;;;;4.38;4.18;;;15.50;70.90;;;;;;4974996;28;20464;-93
2021/10/29 06:01:42;;;;;;;4.30;4.10;;;15.60;71.00;;;;;;4954588;28;20039;-93
2021/10/29 06:04:08;;;;;;;4.22;4.03;;;15.60;71.10;;;;;;4952761;28;20044;-93
2021/10/29 06:06:35;;;;;;;4.30;4.10;;;15.60;71.10;;;;;;4957889;28;20430;-93
2021/10/29 06:09:01;;;;;;;4.47;4.20;;;15.50;71.20;;;;;;4954749;28;20039;-89
2021/10/29 06:11:28;;;;;;;4.32;4.13;;;15.50;71.30;;;;;;4972343;28;20070;-92
2021/10/29 06:13:55;;;;;;;4.10;3.90;;;15.50;71.40;;;;;;4948881;28;20043;-93
2021/10/29 06:16:21;;;;;;;4.35;4.15;;;15.50;71.50;;;;;;4969873;28;20039;-91
2021/10/29 06:18:48;;;;;;;4.03;3.83;;;15.40;71.60;;;;;;4971920;28;20027;-93
2021/10/29 06:21:16;;;;;;;4.30;4.05;;;15.40;71.70;;;;;;4963622;28;20400;-92
2021/10/29 06:23:59;;;;;;;3.95;3.75;;;15.30;71.70;;;;;;4954691;28;20041;-92
2021/10/29 06:26:27;;;;;;;4.78;4.57;;;15.30;71.80;;;;;;4958148;28;20253;-93
2021/10/29 06:28:53;;;;;;;4.15;3.95;;;15.30;71.90;;;;;;4953308;28;20047;-90
2021/10/29 06:31:19;;;;;;;4.22;4.03;;;15.30;72.00;;;;;;4973035;28;20057;-89
2021/10/29 06:33:46;;;;;;;4.30;4.10;;;15.30;72.10;;;;;;4967049;28;20046;-88
2021/10/29 06:36:13;;;;;;;4.22;4.03;;;15.30;72.20;;;;;;4972364;28;20042;-90
2021/10/29 06:38:40;;;;;;;4.28;4.07;;;15.30;72.20;;;;;;4959036;28;20046;-88
2021/10/29 06:41:06;;;;;;;4.10;3.90;;;15.20;72.30;;;;;;4956812;28;20053;-87
2021/10/29 06:49:08;;;;;;;4.13;3.92;;;15.20;72.50;;;;;;4967074;28;20046;-89
2021/10/29 07:41:13;;;;;;;4.05;3.85;;;15.10;73.50;;;;;;4865771;29;20053;-90
2021/10/29 07:43:46;;;;;;;3.80;3.60;;;15.10;73.50;;;;;;4891193;29;20045;-92
2021/10/29 07:46:13;;;;;;;3.90;3.70;;;15.10;73.60;;;;;;4865676;29;20548;-89
2021/10/29 07:48:40;;;;;;;4.68;4.38;;;15.10;73.60;;;;;;4877987;29;20414;-93
2021/10/29 07:51:06;;;;;;;4.38;4.18;;;15.10;73.70;;;;;;4884050;29;20081;-93
2021/10/29 07:53:34;;;;;;;3.78;3.58;;;15.10;73.80;;;;;;4880994;29;20040;-89
2021/10/29 07:56:01;;;;;;;3.95;3.75;;;15.10;73.80;;;;;;4876517;29;20503;-87
2021/10/29 07:58:27;;;;;;;3.90;3.70;;;15.10;73.90;;;;;;4881847;29;20051;-87
2021/10/29 08:00:53;;;;;;;4.45;4.15;;;15.10;73.90;;;;;;4895131;29;20033;-88
2021/10/29 08:03:19;;;;;;;3.90;3.70;;;15.20;74.00;;;;;;4896175;29;20438;-89
2021/10/29 08:05:46;;;;;;;4.00;3.80;;;15.20;74.00;;;;;;4880691;29;20067;-86
2021/10/29 08:08:17;;;;;;;3.95;3.75;;;15.20;74.10;;;;;;4865989;29;20530;-88
2021/10/29 08:10:43;;;;;;;3.95;3.75;;;15.10;74.10;;;;;;4869713;29;20044;-86
2021/10/29 08:13:09;;;;;;;3.85;3.65;;;15.10;74.20;;;;;;4894486;29;20068;-84
2021/10/29 08:15:37;;;;;;;4.35;4.15;;;15.20;74.20;;;;;;4928912;28;20499;-84
2021/10/29 08:18:07;;;;;;;3.75;3.55;;;15.10;74.20;;;;;;4970546;28;20027;-83
2021/10/29 08:20:36;;;;;;;3.75;3.55;;;15.20;74.30;;;;;;4969616;28;20047;-83
2021/10/29 08:23:03;;;;;;;5.32;4.40;;;15.20;74.40;;;;;;4970619;28;20030;-85
2021/10/29 08:25:30;;;;;;;3.78;3.58;;;15.20;74.40;;;;;;4970331;28;20657;-86
2021/10/29 08:27:56;;;;;;;3.90;3.70;;;15.20;74.40;;;;;;4970621;28;20479;-83
2021/10/29 08:30:23;;;;;;;5.00;4.70;;;15.30;74.60;;;;;;4970185;28;20034;-88
2021/10/29 08:32:50;;;;;;;4.03;3.78;;;15.50;74.40;;;;;;4969820;28;20058;-90
2021/10/29 08:35:18;;;;;;;3.35;3.25;;;15.80;73.90;;;;;;4976341;28;20039;-89
2021/10/29 08:37:46;;;;;;;3.60;3.40;;;16.10;73.40;;;;;;4970130;28;20472;-84
2021/10/29 08:40:13;;;;;;;3.75;3.55;;;16.20;73.20;;;;;;4964507;28;20499;-84
2021/10/29 08:42:39;;;;;;;3.60;3.40;;;16.30;73.20;;;;;;4972287;28;20035;-85
2021/10/29 08:45:07;;;;;;;5.82;3.67;;;16.40;73.30;;;;;;4969390;28;20035;-85
2021/10/29 08:47:36;;;;;;;3.47;3.28;;;16.50;73.40;;;;;;4972324;28;20507;-85
2021/10/29 08:50:07;;;;;;;4.13;3.92;;;16.60;73.50;;;;;;4972099;28;20026;-85
2021/10/29 08:52:33;;;;;;;4.60;4.30;;;16.60;73.70;;;;;;4968471;28;20038;-85
2021/10/29 08:55:00;;;;;;;4.15;3.95;;;16.60;73.70;;;;;;4969751;28;20482;-86
2021/10/29 08:57:27;;;;;;;3.88;3.67;;;16.60;74.00;;;;;;4969796;28;20407;-84
2021/10/29 08:59:55;;;;;;;14.35;4.03;;;16.60;74.10;;;;;;4969819;28;20026;-85
2021/10/29 09:02:34;;;;;;;6.68;4.18;;;16.60;74.10;;;;;;4958679;28;20038;-85
2021/10/29 09:32:58;;;;;;;4.22;4.03;;;16.90;74.40;;;;;;4965957;28;20132;-88
2021/10/29 09:35:29;;;;;;;4.28;4.05;;;16.90;74.40;;;;;;4971516;28;20047;-89
2021/10/29 09:38:14;;;;;;;4.93;4.68;;;16.90;74.40;;;;;;4960337;28;20443;-87
2021/10/29 09:40:57;;;;;;;4.25;4.05;;;17.00;74.40;;;;;;4968095;28;20035;-89
2021/10/29 09:43:23;;;;;;;4.47;4.28;;;17.00;74.30;;;;;;4970943;28;20045;-85
2021/10/29 09:45:55;;;;;;;4.25;4.05;;;17.10;74.30;;;;;;4969225;28;20046;-84
2021/10/29 09:48:25;;;;;;;4.25;4.05;;;17.10;74.30;;;;;;4969545;28;20026;-84
2021/10/29 09:50:54;;;;;;;4.05;3.85;;;17.20;74.20;;;;;;4968160;28;20472;-86
2021/10/29 09:53:34;;;;;;;4.40;4.20;;;17.30;74.10;;;;;;4972303;28;20039;-84
2021/10/29 09:56:06;;;;;;;4.55;4.35;;;17.50;74.10;;;;;;4971530;28;20034;-84
2021/10/29 09:58:32;;;;;;;4.63;4.43;;;17.60;73.90;;;;;;4968714;28;20038;-85
2021/10/29 10:00:59;;;;;;;4.78;4.57;;;17.60;73.70;;;;;;4965955;28;20027;-86
2021/10/29 10:03:26;;;;;;;4.70;4.50;;;17.70;73.80;;;;;;4969655;28;20030;-87
2021/10/29 10:05:52;;;;;;;4.70;4.50;;;17.60;73.70;;;;;;4952102;28;20046;-85
2021/10/29 10:08:19;;;;;;;4.72;4.53;;;17.60;73.80;;;;;;4964194;28;20035;-85
2021/10/29 10:10:50;;;;;;;4.80;4.55;;;17.60;73.80;;;;;;4970659;28;20041;-82
2021/10/29 10:13:17;;;;;;;5.32;5.03;;;17.60;74.00;;;;;;4969396;28;20035;-83
2021/10/29 10:15:43;;;;;;;5.28;4.88;;;17.50;74.10;;;;;;4969579;28;20514;-86
2021/10/29 10:18:09;;;;;;;4.70;4.50;;;17.40;74.20;;;;;;4953342;28;20495;-85
2021/10/29 10:20:35;;;;;;;4.63;4.43;;;17.30;74.30;;;;;;4953331;28;20042;-85
2021/10/29 10:23:05;;;;;;;4.82;4.57;;;17.30;74.50;;;;;;4985908;28;20042;-90
2021/10/29 10:25:40;;;;;;;4.50;4.30;;;17.20;74.50;;;;;;4968715;28;20484;-89
2021/10/29 10:47:06;;;;;;;8.63;4.65;;;17.00;74.80;;;;;;4974886;28;20510;-82
2021/10/29 10:49:35;;;;;;;4.60;4.40;;;17.00;74.80;;;;;;4971954;28;20613;-81
2021/10/29 10:52:27;;;;;;;4.53;4.32;;;17.00;74.70;;;;;;4975491;28;20399;-81
2021/10/29 10:54:57;;;;;;;4.57;4.38;;;17.10;74.80;;;;;;4980159;28;20050;-82
2021/10/29 10:57:49;;;;;;;5.18;4.88;;;17.00;74.60;;;;;;4972290;28;20047;-83
2021/10/29 11:10:24;;;;;;;4.45;4.25;;;17.20;74.40;;;;;;4972597;28;20041;-83
2021/10/29 11:12:50;;;;;;;4.57;4.38;;;17.20;74.30;;;;;;4955557;28;20073;-83
2021/10/29 11:15:16;;;;;;;4.25;4.05;;;17.30;74.40;;;;;;4971724;28;20783;-83
2021/10/29 11:17:53;;;;;;;4.03;3.83;;;17.20;74.30;;;;;;4973661;28;20038;-83
2021/10/29 11:20:41;;;;;;;4.22;4.03;;;17.20;74.40;;;;;;4973101;28;20039;-83
2021/10/29 11:23:08;;;;;;;4.82;4.53;;;17.20;75.30;;;;;;4973038;28;20053;-83
2021/10/29 11:26:25;;;;;;;4.15;3.95;;;17.10;74.50;;;;;;4974460;28;20047;-83
2021/10/29 11:28:52;;;;;;;4.25;4.05;;;17.00;74.60;;;;;;4966004;28;20053;-82
2021/10/29 11:31:25;;;;;;;4.68;4.47;;;17.00;74.70;;;;;;4970941;28;20042;-83
2021/10/29 11:33:52;;;;;;;5.10;4.90;;;16.90;74.80;;;;;;4971153;28;20054;-82
2021/10/29 11:36:20;;;;;;;4.68;4.47;;;16.90;74.90;;;;;;4970868;28;20411;-82
2021/10/29 11:38:47;;;;;;;4.40;4.20;;;16.90;75.00;;;;;;4972607;28;20050;-81
2021/10/29 11:41:22;;;;;;;4.93;4.70;;;16.80;74.90;;;;;;4972134;28;20471;-83
2021/10/29 11:43:49;;;;;;;5.25;4.90;;;16.90;75.00;;;;;;4971538;28;20049;-83
2021/10/29 11:46:16;;;;;;;4.40;4.20;;;16.90;75.00;;;;;;4972232;28;20396;-83
2021/10/29 11:48:52;;;;;;;4.43;4.22;;;16.90;75.00;;;;;;4972072;28;20031;-83
2021/10/29 11:51:20;;;;;;;4.80;4.50;;;16.90;75.00;;;;;;4970912;28;20063;-84
2021/10/29 11:53:51;;;;;;;4.13;3.92;;;16.90;74.90;;;;;;4970625;28;20082;-83
2021/10/29 11:56:43;;;;;;;4.60;4.30;;;16.90;74.80;;;;;;4979262;28;20030;-85
2021/10/29 12:01:52;;;;;;;4.60;4.20;;;17.00;74.70;;;;;;4971847;28;20053;-84
2021/10/29 12:07:20;;;;;;;4.25;4.05;;;17.30;74.50;;;;;;4970661;28;20042;-83
2021/10/29 12:09:48;;;;;;;4.40;4.20;;;17.30;74.30;;;;;;4969237;28;20037;-83
2021/10/29 12:12:17;;;;;;;4.50;4.30;;;17.30;74.30;;;;;;4967975;28;20094;-82
2021/10/29 12:14:48;;;;;;;5.30;5.00;;;17.40;74.30;;;;;;4970552;28;20570;-83
2021/10/29 12:17:21;;;;;;;4.35;4.15;;;17.40;74.30;;;;;;4970372;28;20039;-82
2021/10/29 12:19:50;;;;;;;4.85;4.65;;;17.40;74.30;;;;;;4970266;28;20427;-83
2021/10/29 12:24:52;;;;;;;4.47;4.28;;;17.40;75.10;;;;;;4973490;28;20495;-83
2021/10/29 12:27:36;;;;;;;4.60;4.40;;;17.40;74.30;;;;;;4968204;28;20054;-84
2021/10/29 12:31:07;;;;;;;4.60;4.40;;;17.40;74.40;;;;;;4953550;28;20381;-80
2021/10/29 13:03:23;;;;;;;4.45;4.25;;;17.30;74.50;;;;;;4970337;28;20584;-82
2021/10/29 13:05:57;;;;;;;4.13;3.92;;;17.50;74.30;;;;;;4954710;28;20053;-82
2021/10/29 13:08:23;;;;;;;4.82;4.63;;;17.60;74.00;;;;;;4969169;28;20031;-82
2021/10/29 13:10:53;;;;;;;4.10;3.90;;;17.80;73.80;;;;;;4969634;28;20043;-82
2021/10/29 13:13:35;;;;;;;4.80;4.60;;;17.90;73.60;;;;;;4968696;28;20045;-82
2021/10/29 13:16:08;;;;;;;4.45;4.25;;;17.90;73.30;;;;;;4969619;28;20396;-82
2021/10/29 13:18:53;;;;;;;4.43;4.22;;;17.90;73.40;;;;;;4971546;28;20025;-81
2021/10/29 13:24:40;;;;;;;4.78;4.57;;;17.90;73.50;;;;;;4975687;28;20033;-81
2021/10/29 13:27:08;;;;;;;5.13;4.93;;;17.90;73.60;;;;;;4965168;28;20499;-82
2021/10/29 13:35:23;;;;;;;4.85;4.65;;;18.00;73.20;;;;;;4972672;28;20519;-83
2021/10/29 14:29:04;;;;;;;4.40;4.20;;;17.80;73.10;;;;;;4967542;28;20050;-82
2021/10/29 14:31:36;;;;;;;4.57;4.38;;;17.80;73.10;;;;;;4968669;28;20030;-81
2021/10/29 14:34:10;;;;;;;5.20;5.00;;;17.80;73.10;;;;;;4970670;28;20058;-81
2021/10/29 14:37:00;;;;;;;17.33;4.95;;;17.80;73.10;;;;;;4971471;28;20033;-80
2021/10/29 14:39:50;;;;;;;4.97;4.57;;;17.80;73.00;;;;;;4970377;28;20035;-83
2021/10/29 14:42:27;;;;;;;5.15;4.95;;;17.80;72.90;;;;;;4964105;28;20391;-81
2021/10/29 14:45:11;;;;;;;4.72;4.53;;;17.80;72.90;;;;;;4968265;28;20063;-83
2021/10/29 15:01:27;;;;;;;4.30;4.10;;;17.80;72.80;;;;;;4956393;28;20495;-82
2021/10/29 15:46:46;;;;;;;4.72;4.53;;;17.50;73.00;;;;;;4941327;28;20187;-82
2021/10/29 15:51:57;;;;;;;4.50;4.30;;;17.40;73.10;;;;;;4945866;28;20512;-85
2021/10/29 15:54:24;;;;;;;4.45;4.25;;;17.40;73.20;;;;;;4932278;29;20529;-80
2021/10/29 16:17:55;;;;;;;4.50;4.30;;;17.10;73.50;;;;;;4930605;29;20047;-81
2021/10/29 16:20:22;;;;;;;4.68;4.47;;;17.10;73.60;;;;;;4969714;28;20046;-80
2021/10/29 16:22:49;;;;;;;4.70;4.50;;;17.00;73.60;;;;;;4969513;28;20037;-81
2021/10/29 16:25:21;;;;;;;4.72;4.53;;;17.00;73.70;;;;;;4972333;28;20050;-80
2021/10/29 16:28:04;;;;;;;4.43;4.22;;;16.90;73.70;;;;;;4972171;28;20050;-79
2021/10/29 16:30:31;;;;;;;4.55;4.35;;;16.90;73.80;;;;;;4971956;28;20030;-80
2021/10/29 16:35:25;;;;;;;4.45;4.25;;;16.90;73.90;;;;;;4976291;28;20325;-79
2021/10/29 16:37:51;;;;;;;4.57;4.38;;;16.80;73.90;;;;;;4959832;28;20031;-83
2021/10/29 16:40:17;;;;;;;5.07;4.78;;;16.80;74.00;;;;;;4969192;28;20026;-81
2021/10/29 16:42:43;;;;;;;4.55;4.35;;;16.70;74.00;;;;;;4970977;28;20030;-82
2021/10/29 16:45:11;;;;;;;4.53;4.32;;;16.70;74.00;;;;;;4968996;28;20035;-81
2021/10/29 16:47:37;;;;;;;4.47;4.28;;;16.70;74.10;;;;;;4969385;28;20042;-82
2021/10/29 16:50:04;;;;;;;4.38;4.18;;;16.60;74.10;;;;;;4970098;28;20031;-81
2021/10/29 16:52:30;;;;;;;4.50;4.30;;;16.60;74.10;;;;;;4970418;28;20030;-82
2021/10/29 16:54:56;;;;;;;4.57;4.38;;;16.60;74.20;;;;;;4969117;28;20047;-80
2021/10/29 16:57:22;;;;;;;4.10;3.90;;;16.50;74.10;;;;;;4970147;28;20184;-81
2021/10/29 16:59:48;;;;;;;3.88;3.67;;;16.50;74.20;;;;;;4953321;28;20054;-79
2021/10/29 17:02:15;;;;;;;3.90;3.70;;;16.50;74.30;;;;;;4971230;28;20035;-79
2021/10/29 17:04:41;;;;;;;3.80;3.60;;;16.50;74.30;;;;;;4969527;28;20047;-81
2021/10/29 17:07:07;;;;;;;3.83;3.63;;;16.40;74.30;;;;;;4967622;28;20034;-78
2021/10/29 17:09:34;;;;;;;4.10;3.90;;;16.40;74.30;;;;;;4968228;28;20480;-82
2021/10/29 17:12:00;;;;;;;3.90;3.70;;;16.40;74.40;;;;;;4968977;28;20408;-84
2021/10/29 17:14:27;;;;;;;11.30;4.88;;;16.30;74.30;;;;;;4973530;28;20053;-83
2021/10/29 17:16:56;;;;;;;4.40;4.00;;;16.30;74.40;;;;;;4969198;28;20150;-83
2021/10/29 17:19:22;;;;;;;3.97;3.78;;;16.30;74.40;;;;;;4979553;28;20432;-82
2021/10/29 17:21:48;;;;;;;4.00;3.80;;;16.30;74.50;;;;;;4953087;28;20039;-84
2021/10/29 17:24:16;;;;;;;3.95;3.75;;;16.20;74.50;;;;;;4971628;28;20027;-85
2021/10/29 17:26:42;;;;;;;4.15;3.95;;;16.20;74.50;;;;;;4970856;28;20031;-80
2021/10/29 17:29:09;;;;;;;4.07;3.88;;;16.20;74.50;;;;;;4973195;28;20423;-84
2021/10/29 17:31:35;;;;;;;4.28;4.07;;;16.20;74.60;;;;;;4971780;28;20412;-86
2021/10/29 17:34:01;;;;;;;4.95;4.53;;;16.20;74.60;;;;;;4968571;28;20385;-84
2021/10/29 17:36:27;;;;;;;4.32;4.13;;;16.20;74.60;;;;;;4969512;28;20270;-80
2021/10/29 17:38:53;;;;;;;4.78;4.47;;;16.10;74.60;;;;;;4969871;28;20035;-83
2021/10/29 17:41:19;;;;;;;4.10;3.90;;;16.10;74.60;;;;;;4972896;28;20383;-82
2021/10/29 17:43:45;;;;;;;4.60;4.40;;;16.10;74.60;;;;;;4970695;28;20230;-83
2021/10/29 17:46:11;;;;;;;4.55;4.25;;;16.10;74.60;;;;;;4968590;28;20026;-82
2021/10/29 17:48:37;;;;;;;4.00;3.80;;;16.00;75.40;;;;;;4970720;28;20026;-83
2021/10/29 17:51:03;;;;;;;3.90;3.70;;;16.00;74.70;;;;;;4970323;28;20038;-80
2021/10/29 17:53:33;;;;;;;9.68;4.68;;;16.00;74.70;;;;;;4971377;28;20039;-85
2021/10/29 17:56:00;;;;;;;4.28;4.07;;;16.00;74.80;;;;;;4985135;28;20031;-82